createdAt,value
2023-03-17T00:01:51.141Z,4.07
2023-03-17T00:06:56.728Z,4.60
2023-03-17T00:12:00.781Z,4.07
2023-03-17T00:17:02.475Z,4.10
2023-03-17T00:22:06.726Z,4.70
2023-03-17T00:27:13.260Z,4.57
2023-03-17T00:32:17.686Z,4.00
2023-03-17T00:37:21.831Z,4.03
2023-03-17T00:42:26.814Z,4.80
2023-03-17T00:47:30.855Z,4.57
2023-03-17T00:52:36.242Z,4.33
2023-03-17T00:57:39.419Z,4.80
2023-03-17T01:02:41.435Z,4.33
2023-03-17T01:07:48.118Z,4.70
2023-03-17T01:12:53.352Z,4.47
2023-03-17T01:17:57.577Z,4.47
2023-03-17T01:23:00.520Z,4.77
2023-03-17T01:28:02.256Z,4.77
2023-03-17T01:33:08.479Z,4.87
2023-03-17T01:38:10.612Z,4.60
2023-03-17T01:43:12.514Z,4.60
2023-03-17T01:48:15.265Z,5.00
2023-03-17T01:53:20.467Z,4.80
2023-03-17T01:58:24.179Z,5.27
2023-03-17T02:03:29.819Z,4.63
2023-03-17T02:08:33.974Z,5.03
2023-03-17T02:13:37.216Z,5.13
2023-03-17T02:18:38.918Z,4.70
2023-03-17T02:23:43.679Z,4.80
2023-03-17T02:28:46.148Z,5.40
2023-03-17T02:33:47.889Z,4.73
2023-03-17T02:38:49.823Z,5.10
2023-03-17T02:43:56.935Z,4.77
2023-03-17T02:49:02.031Z,5.73
2023-03-17T02:54:06.367Z,6.43
2023-03-17T02:59:10.221Z,6.30
2023-03-17T03:04:12.012Z,6.00
2023-03-17T03:09:15.179Z,5.67
2023-03-17T03:14:17.038Z,6.00
2023-03-17T03:19:18.742Z,5.27
2023-03-17T03:24:22.924Z,5.53
2023-03-17T03:29:24.696Z,5.50
2023-03-17T03:34:33.197Z,5.53
2023-03-17T03:39:39.436Z,5.63
2023-03-17T03:44:43.230Z,6.73
2023-03-17T03:49:47.273Z,5.90
2023-03-17T03:54:51.213Z,5.90
2023-03-17T03:59:56.148Z,6.27
2023-03-17T04:05:00.090Z,6.57
2023-03-17T04:10:04.589Z,5.83
2023-03-17T04:15:09.147Z,5.63
2023-03-17T04:20:14.649Z,6.20
2023-03-17T04:25:21.630Z,6.00
2023-03-17T04:30:23.388Z,6.20
2023-03-17T04:35:25.098Z,5.60
2023-03-17T04:40:29.517Z,5.00
2023-03-17T04:45:33.750Z,5.60
2023-03-17T04:50:35.655Z,5.00
2023-03-17T04:55:37.551Z,5.13
2023-03-17T05:00:39.441Z,4.70
2023-03-17T05:05:41.144Z,5.20
2023-03-17T05:10:42.926Z,4.70
2023-03-17T05:15:47.743Z,5.00
2023-03-17T05:20:51.731Z,5.13
2023-03-17T05:25:53.734Z,5.27
2023-03-17T05:30:58.353Z,5.10
2023-03-17T05:36:02.434Z,5.00
2023-03-17T05:41:04.281Z,5.90
2023-03-17T05:46:06.060Z,4.97
2023-03-17T05:51:08.221Z,5.47
2023-03-17T05:56:12.786Z,5.73
2023-03-17T06:01:14.560Z,5.10
2023-03-17T06:06:18.710Z,5.33
2023-03-17T06:11:21.487Z,5.17
2023-03-17T06:16:23.381Z,5.00
2023-03-17T06:21:25.662Z,5.40
2023-03-17T06:26:29.684Z,5.10
2023-03-17T06:31:31.442Z,5.30
2023-03-17T06:36:33.656Z,5.30
2023-03-17T06:41:35.945Z,5.20
2023-03-17T06:46:40.064Z,5.03
2023-03-17T06:51:46.707Z,4.63
2023-03-17T06:56:48.388Z,5.13
2023-03-17T07:01:52.442Z,5.43
2023-03-17T07:06:54.536Z,5.13
2023-03-17T07:12:04.885Z,5.00
2023-03-17T07:17:12.144Z,4.80
2023-03-17T07:22:13.914Z,5.37
2023-03-17T07:27:18.816Z,4.87
2023-03-17T07:32:24.710Z,5.23
2023-03-17T07:37:26.416Z,5.63
2023-03-17T07:42:30.459Z,4.47
2023-03-17T07:47:34.510Z,4.43
2023-03-17T07:52:38.487Z,4.40
2023-03-17T07:57:43.411Z,4.47
2023-03-17T08:02:48.137Z,5.10
2023-03-17T08:07:53.722Z,4.40
2023-03-17T08:13:00.822Z,4.53
2023-03-17T08:18:02.519Z,4.33
2023-03-17T08:23:04.296Z,4.70
2023-03-17T08:28:09.475Z,4.70
2023-03-17T08:33:11.324Z,4.47
2023-03-17T08:38:16.086Z,5.17
2023-03-17T08:43:18.802Z,4.80
2023-03-17T08:48:23.089Z,4.67
2023-03-17T08:53:28.270Z,4.60
2023-03-17T08:58:30.206Z,4.37
2023-03-17T09:03:33.106Z,4.27
2023-03-17T09:08:38.637Z,4.30
2023-03-17T09:13:41.558Z,4.43
2023-03-17T09:18:44.455Z,4.00
2023-03-17T09:23:46.954Z,4.37
2023-03-17T09:28:51.524Z,3.93
2023-03-17T09:33:53.573Z,4.17
2023-03-17T09:38:55.402Z,4.23
2023-03-17T09:44:08.852Z,3.63
2023-03-17T09:49:15.078Z,3.17
2023-03-17T09:54:27.038Z,3.70
2023-03-17T09:59:34.438Z,3.20
2023-03-17T10:04:37.169Z,3.07
2023-03-17T10:09:54.061Z,3.45
2023-03-17T10:15:06.762Z,3.38
2023-03-17T10:20:13.703Z,3.33
2023-03-17T10:25:29.491Z,3.90
2023-03-17T10:30:34.537Z,3.40
2023-03-17T10:35:39.463Z,3.70
2023-03-17T10:40:55.635Z,3.33
2023-03-17T10:46:03.340Z,3.40
2023-03-17T10:51:13.277Z,3.50
2023-03-17T10:56:27.394Z,3.42
2023-03-17T11:01:29.414Z,3.30
2023-03-17T11:06:39.377Z,3.50
2023-03-17T11:11:47.059Z,3.80
2023-03-17T11:17:04.687Z,3.65
2023-03-17T11:22:21.736Z,4.20
2023-03-17T11:28:01.358Z,3.78
2023-03-17T11:33:35.452Z,3.85
2023-03-17T11:39:09.916Z,3.53
2023-03-17T11:44:37.192Z,3.60
2023-03-17T11:49:40.130Z,3.70
2023-03-17T11:55:07.880Z,3.50
2023-03-17T12:00:30.153Z,3.85
2023-03-17T12:05:37.283Z,4.07
2023-03-17T12:11:01.905Z,3.92
2023-03-17T12:16:29.441Z,3.70
2023-03-17T12:21:36.996Z,4.00
2023-03-17T12:26:52.783Z,3.80
2023-03-17T12:32:03.839Z,3.58
2023-03-17T12:37:05.724Z,3.42
2023-03-17T12:42:33.717Z,3.83
2023-03-17T12:47:57.275Z,3.70
2023-03-17T12:53:19.750Z,3.80
2023-03-17T12:58:44.101Z,3.67
2023-03-17T13:04:12.865Z,3.83
2023-03-17T13:09:30.250Z,3.80
2023-03-17T13:14:48.166Z,4.18
2023-03-17T13:20:00.674Z,3.97
2023-03-17T13:25:14.389Z,4.20
2023-03-17T13:30:26.925Z,4.18
2023-03-17T13:35:43.142Z,4.50
2023-03-17T13:40:57.015Z,3.97
2023-03-17T13:46:41.979Z,4.78
2023-03-17T13:51:59.417Z,3.95
2023-03-17T13:57:23.628Z,4.18
2023-03-17T14:02:27.947Z,4.20
2023-03-17T14:07:44.376Z,4.82
2023-03-17T14:12:55.219Z,4.40
2023-03-17T14:18:14.537Z,5.15
2023-03-17T14:23:18.606Z,5.53
2023-03-17T14:28:36.634Z,5.22
2023-03-17T14:33:42.386Z,5.75
2023-03-17T14:38:52.154Z,4.53
2023-03-17T14:43:58.476Z,5.28
2023-03-17T14:49:02.868Z,5.45
2023-03-17T14:54:13.922Z,5.55
2023-03-17T14:59:36.018Z,5.05
2023-03-17T15:04:53.326Z,5.40
2023-03-17T15:10:07.344Z,5.78
2023-03-17T15:15:23.491Z,5.28
2023-03-17T15:20:25.356Z,5.57
2023-03-17T15:25:34.451Z,6.15
2023-03-17T15:30:48.245Z,5.90
2023-03-17T15:35:52.814Z,5.88
2023-03-17T15:40:57.411Z,5.90
2023-03-17T15:46:04.723Z,5.57
2023-03-17T15:51:10.207Z,4.47
2023-03-17T15:56:19.132Z,5.88
2023-03-17T16:01:25.112Z,6.10
2023-03-17T16:06:28.297Z,6.25
2023-03-17T16:11:31.421Z,6.03
2023-03-17T16:16:37.565Z,5.50
2023-03-17T16:21:39.682Z,4.63
2023-03-17T16:26:41.373Z,5.60
2023-03-17T16:31:45.164Z,5.68
2023-03-17T16:36:48.433Z,4.45
2023-03-17T16:41:55.014Z,5.65
2023-03-17T16:46:56.870Z,5.65
2023-03-17T16:52:00.871Z,5.57
2023-03-17T16:57:02.571Z,6.10
2023-03-17T17:02:04.479Z,6.15
2023-03-17T17:07:08.606Z,6.65
2023-03-17T17:12:12.829Z,6.88
2023-03-17T17:17:14.816Z,7.50
2023-03-17T17:22:22.109Z,6.38
2023-03-17T17:27:28.406Z,6.47
2023-03-17T17:32:32.367Z,6.07
2023-03-17T17:37:34.519Z,6.63
2023-03-17T17:42:36.258Z,6.30
2023-03-17T17:47:38.325Z,6.43
2023-03-17T17:52:40.076Z,7.03
2023-03-17T17:57:42.070Z,6.90
2023-03-17T18:02:44.344Z,9.23
2023-03-17T18:07:46.209Z,8.07
2023-03-17T18:12:48.891Z,7.05
2023-03-17T18:17:51.549Z,7.28
2023-03-17T18:22:54.077Z,7.47
2023-03-17T18:28:00.901Z,7.25
2023-03-17T18:33:07.357Z,7.60
2023-03-17T18:38:09.146Z,8.05
2023-03-17T18:43:15.413Z,8.38
2023-03-17T18:48:17.270Z,7.50
2023-03-17T18:53:19.000Z,8.05
2023-03-17T18:58:20.789Z,7.90
2023-03-17T19:03:27.392Z,8.98
2023-03-17T19:08:31.636Z,13.05
2023-03-17T19:13:33.925Z,13.93
2023-03-17T19:18:36.771Z,15.15
2023-03-17T19:23:41.500Z,13.98
2023-03-17T19:28:43.604Z,10.52
2023-03-17T19:33:47.993Z,9.75
2023-03-17T19:38:53.012Z,13.95
2023-03-17T19:43:56.807Z,29.42
2023-03-17T19:48:58.654Z,19.92
2023-03-17T19:54:06.145Z,16.05
2023-03-17T19:59:08.977Z,14.60
2023-03-17T20:04:14.098Z,12.63
2023-03-17T20:09:18.117Z,9.23
2023-03-17T20:14:20.821Z,9.48
2023-03-17T20:19:22.607Z,8.50
2023-03-17T20:24:26.933Z,8.82
2023-03-17T20:29:29.240Z,19.25
2023-03-17T20:34:34.671Z,12.45
2023-03-17T20:39:38.896Z,13.32
2023-03-17T20:44:45.265Z,10.90
2023-03-17T20:49:47.923Z,13.57
2023-03-17T20:54:52.683Z,11.70
2023-03-17T20:59:55.957Z,10.68
2023-03-17T21:05:01.179Z,11.30
2023-03-17T21:10:03.121Z,9.32
2023-03-17T21:15:06.166Z,10.00
2023-03-17T21:20:12.689Z,9.20
2023-03-17T21:25:17.819Z,8.63
2023-03-17T21:30:19.472Z,8.55
2023-03-17T21:35:25.106Z,9.15
2023-03-17T21:40:32.380Z,8.70
2023-03-17T21:45:36.891Z,9.67
2023-03-17T21:50:38.658Z,8.43
2023-03-17T21:55:41.515Z,9.43
2023-03-17T22:00:46.306Z,8.98
2023-03-17T22:05:48.399Z,10.43
2023-03-17T22:10:50.090Z,10.15
2023-03-17T22:15:52.618Z,11.68
2023-03-17T22:20:57.720Z,10.38
2023-03-17T22:25:59.399Z,10.65
2023-03-17T22:31:01.885Z,9.82
2023-03-17T22:36:03.731Z,9.70
2023-03-17T22:41:10.374Z,8.60
2023-03-17T22:46:12.921Z,8.87
2023-03-17T22:51:17.472Z,9.47
2023-03-17T22:56:23.180Z,8.93
2023-03-17T23:01:25.802Z,9.10
2023-03-17T23:06:27.783Z,8.20
2023-03-17T23:11:34.215Z,8.57
2023-03-17T23:16:37.623Z,8.37
2023-03-17T23:21:41.923Z,7.80
2023-03-17T23:26:45.845Z,7.37
2023-03-17T23:31:49.989Z,7.77
2023-03-17T23:36:54.116Z,7.57
2023-03-17T23:41:55.868Z,7.53
2023-03-17T23:47:02.634Z,6.83
2023-03-17T23:52:05.250Z,7.23
2023-03-17T23:57:09.249Z,7.40
